AIZ1813 LLBG-LLER
Flight info
| Callsign | AIZ1813 |
|---|---|
| Flight time | 0h 32m |
| Altitude | 17000 |
| Route | TOMAL J10 NURIT |
| Aircraft | A21N/M-SDE2E3FGHIRWXY/LB1 |
Departure
| Time | 2026-04-25 18:02 |
|---|---|
| Airport | Ben Gurion International Airport (LLBG) |
Arrival
| Time | 2026-04-25 18:34 |
|---|---|
| Airport | Ramon International Airport (LLER) |
| Time | Latitude | Longitude | Altitude | Speed | Heading |
|---|---|---|---|---|---|
| 2026-04-25 17:29 | 32.00254 | 34.87872 | 141 ft | 0 kts | 115° |
| 2026-04-25 17:50 | 32.00259 | 34.87861 | 140 ft | 2 kts | 115° |
| 2026-04-25 17:50 | 32.00264 | 34.87848 | 140 ft | 0 kts | 115° |
| 2026-04-25 17:51 | 32.00269 | 34.87835 | 140 ft | 2 kts | 101° |
| 2026-04-25 17:51 | 32.00270 | 34.87817 | 140 ft | 2 kts | 84° |
| 2026-04-25 17:51 | 32.00266 | 34.87800 | 140 ft | 2 kts | 66° |
| 2026-04-25 17:51 | 32.00259 | 34.87785 | 140 ft | 2 kts | 49° |
| 2026-04-25 17:52 | 32.00249 | 34.87774 | 140 ft | 0 kts | 34° |
| 2026-04-25 17:52 | 32.00248 | 34.87773 | 140 ft | 0 kts | 33° |
| 2026-04-25 17:52 | 32.00263 | 34.87785 | 140 ft | 0 kts | 32° |
| 2026-04-25 17:56 | 32.00280 | 34.87798 | 140 ft | 6 kts | 32° |
| 2026-04-25 17:56 | 32.00323 | 34.87829 | 140 ft | 8 kts | 32° |
| 2026-04-25 17:56 | 32.00338 | 34.87840 | 140 ft | 1 kts | 32° |
| 2026-04-25 17:57 | 32.00372 | 34.87864 | 140 ft | 7 kts | 32° |
| 2026-04-25 17:57 | 32.00418 | 34.87898 | 140 ft | 8 kts | 31° |
| 2026-04-25 17:57 | 32.00474 | 34.87936 | 140 ft | 9 kts | 31° |
| 2026-04-25 17:57 | 32.00494 | 34.87949 | 140 ft | 9 kts | 22° |
| 2026-04-25 17:58 | 32.00599 | 34.87929 | 140 ft | 9 kts | 16° |
| 2026-04-25 17:58 | 32.00672 | 34.87979 | 140 ft | 18 kts | 32° |
| 2026-04-25 17:58 | 32.00786 | 34.88060 | 140 ft | 19 kts | 32° |
| 2026-04-25 17:58 | 32.00904 | 34.88145 | 140 ft | 20 kts | 31° |
| 2026-04-25 17:59 | 32.01024 | 34.88230 | 140 ft | 19 kts | 31° |
| 2026-04-25 17:59 | 32.01141 | 34.88315 | 140 ft | 19 kts | 32° |
| 2026-04-25 17:59 | 32.01256 | 34.88401 | 140 ft | 19 kts | 36° |
| 2026-04-25 17:59 | 32.01354 | 34.88508 | 140 ft | 19 kts | 50° |
| 2026-04-25 18:00 | 32.01432 | 34.88636 | 140 ft | 18 kts | 60° |
| 2026-04-25 18:00 | 32.01482 | 34.88776 | 140 ft | 18 kts | 72° |
| 2026-04-25 18:00 | 32.01510 | 34.88927 | 141 ft | 18 kts | 80° |
| 2026-04-25 18:00 | 32.01533 | 34.89076 | 141 ft | 16 kts | 79° |
| 2026-04-25 18:01 | 32.01594 | 34.89158 | 141 ft | 13 kts | 360° |
| 2026-04-25 18:01 | 32.01691 | 34.89140 | 141 ft | 14 kts | 347° |
| 2026-04-25 18:01 | 32.01740 | 34.89061 | 140 ft | 11 kts | 263° |
| 2026-04-25 18:01 | 32.01711 | 34.88878 | 140 ft | 60 kts | 259° |
| 2026-04-25 18:02 | 32.01576 | 34.87996 | 140 ft | 154 kts | 260° |
| 2026-04-25 18:02 | 32.01370 | 34.86574 | 701 ft | 186 kts | 260° |
| 2026-04-25 18:02 | 32.01085 | 34.85171 | 1960 ft | 177 kts | 243° |
| 2026-04-25 18:02 | 32.00204 | 34.84269 | 2811 ft | 183 kts | 199° |
| 2026-04-25 18:03 | 31.98889 | 34.84333 | 3491 ft | 201 kts | 160° |
| 2026-04-25 18:03 | 31.97852 | 34.85422 | 4295 ft | 211 kts | 121° |
| 2026-04-25 18:03 | 31.97329 | 34.87064 | 5010 ft | 226 kts | 110° |
| 2026-04-25 18:03 | 31.96804 | 34.88850 | 5762 ft | 236 kts | 112° |
| 2026-04-25 18:04 | 31.96252 | 34.90663 | 6608 ft | 240 kts | 112° |
| 2026-04-25 18:04 | 31.95674 | 34.92507 | 7459 ft | 243 kts | 112° |
| 2026-04-25 18:04 | 31.95084 | 34.94367 | 8316 ft | 245 kts | 113° |
| 2026-04-25 18:04 | 31.94459 | 34.96212 | 9139 ft | 246 kts | 116° |
| 2026-04-25 18:05 | 31.93749 | 34.98077 | 9701 ft | 260 kts | 117° |
| 2026-04-25 18:05 | 31.92967 | 35.00086 | 10155 ft | 277 kts | 116° |
| 2026-04-25 18:05 | 31.92146 | 35.02199 | 10567 ft | 294 kts | 117° |
| 2026-04-25 18:05 | 31.91267 | 35.04465 | 10913 ft | 311 kts | 116° |
| 2026-04-25 18:06 | 31.90354 | 35.06820 | 11202 ft | 327 kts | 116° |
| 2026-04-25 18:06 | 31.89381 | 35.09335 | 11532 ft | 339 kts | 116° |
| 2026-04-25 18:06 | 31.88405 | 35.11863 | 12033 ft | 344 kts | 116° |
| 2026-04-25 18:06 | 31.87412 | 35.14428 | 12604 ft | 347 kts | 116° |
| 2026-04-25 18:07 | 31.86407 | 35.17023 | 13143 ft | 349 kts | 116° |
| 2026-04-25 18:07 | 31.85383 | 35.19663 | 13687 ft | 352 kts | 116° |
| 2026-04-25 18:07 | 31.84371 | 35.22270 | 14193 ft | 355 kts | 116° |
| 2026-04-25 18:07 | 31.83332 | 35.24942 | 14698 ft | 358 kts | 116° |
| 2026-04-25 18:08 | 31.82300 | 35.27599 | 15187 ft | 360 kts | 116° |
| 2026-04-25 18:08 | 31.81250 | 35.30297 | 15670 ft | 362 kts | 117° |
| 2026-04-25 18:08 | 31.80208 | 35.32972 | 16130 ft | 365 kts | 117° |
| 2026-04-25 18:08 | 31.79138 | 35.35715 | 16573 ft | 368 kts | 117° |
| 2026-04-25 18:09 | 31.78064 | 35.38464 | 16933 ft | 370 kts | 117° |
| 2026-04-25 18:09 | 31.76994 | 35.41205 | 17013 ft | 371 kts | 117° |
| 2026-04-25 18:09 | 31.75707 | 35.43764 | 16966 ft | 349 kts | 133° |
| 2026-04-25 18:09 | 31.75174 | 35.44454 | 16963 ft | 337 kts | 139° |
| 2026-04-25 18:10 | 31.72167 | 35.46621 | 16942 ft | 281 kts | 171° |
| 2026-04-25 18:10 | 31.70258 | 35.46807 | 16971 ft | 273 kts | 182° |
| 2026-04-25 18:10 | 31.68359 | 35.46804 | 16952 ft | 273 kts | 185° |
| 2026-04-25 18:10 | 31.66418 | 35.46603 | 16937 ft | 286 kts | 191° |
| 2026-04-25 18:11 | 31.64362 | 35.46161 | 16949 ft | 317 kts | 194° |
| 2026-04-25 18:11 | 31.62089 | 35.45619 | 16960 ft | 349 kts | 194° |
| 2026-04-25 18:11 | 31.59609 | 35.45050 | 16985 ft | 372 kts | 193° |
| 2026-04-25 18:11 | 31.57011 | 35.44474 | 16965 ft | 378 kts | 193° |
| 2026-04-25 18:12 | 31.54413 | 35.43902 | 16954 ft | 379 kts | 193° |
| 2026-04-25 18:12 | 31.51806 | 35.43327 | 16957 ft | 379 kts | 193° |
| 2026-04-25 18:12 | 31.49218 | 35.42753 | 16957 ft | 378 kts | 193° |
| 2026-04-25 18:12 | 31.46611 | 35.42174 | 16959 ft | 379 kts | 193° |
| 2026-04-25 18:13 | 31.44031 | 35.41598 | 16973 ft | 379 kts | 193° |
| 2026-04-25 18:13 | 31.41444 | 35.41022 | 16966 ft | 378 kts | 193° |
| 2026-04-25 18:13 | 31.38825 | 35.40439 | 16942 ft | 379 kts | 193° |
| 2026-04-25 18:14 | 31.33611 | 35.39325 | 16969 ft | 380 kts | 191° |
| 2026-04-25 18:14 | 31.30999 | 35.38958 | 16989 ft | 381 kts | 188° |
| 2026-04-25 18:14 | 31.28342 | 35.38675 | 16968 ft | 381 kts | 187° |
| 2026-04-25 18:14 | 31.25674 | 35.38393 | 16978 ft | 380 kts | 187° |
| 2026-04-25 18:15 | 31.23055 | 35.38118 | 16996 ft | 380 kts | 188° |
| 2026-04-25 18:15 | 31.20393 | 35.37837 | 16977 ft | 380 kts | 187° |
| 2026-04-25 18:15 | 31.17755 | 35.37559 | 16980 ft | 380 kts | 187° |
| 2026-04-25 18:15 | 31.15142 | 35.37286 | 16984 ft | 379 kts | 187° |
| 2026-04-25 18:16 | 31.12507 | 35.37015 | 16988 ft | 379 kts | 188° |
| 2026-04-25 18:16 | 31.09854 | 35.36742 | 17003 ft | 378 kts | 188° |
| 2026-04-25 18:16 | 31.04607 | 35.36200 | 16978 ft | 379 kts | 187° |
| 2026-04-25 18:17 | 31.01964 | 35.35930 | 16989 ft | 379 kts | 188° |
| 2026-04-25 18:17 | 30.99316 | 35.35657 | 16974 ft | 380 kts | 187° |
| 2026-04-25 18:17 | 30.96710 | 35.35325 | 16993 ft | 379 kts | 191° |
| 2026-04-25 18:17 | 30.94108 | 35.34695 | 16978 ft | 377 kts | 197° |
| 2026-04-25 18:18 | 30.91625 | 35.33772 | 16992 ft | 376 kts | 202° |
| 2026-04-25 18:18 | 30.89193 | 35.32619 | 16998 ft | 375 kts | 204° |
| 2026-04-25 18:18 | 30.86759 | 35.31419 | 16984 ft | 375 kts | 205° |
| 2026-04-25 18:18 | 30.84361 | 35.30230 | 16752 ft | 374 kts | 205° |
| 2026-04-25 18:19 | 30.81957 | 35.29039 | 16502 ft | 373 kts | 205° |
| 2026-04-25 18:19 | 30.79558 | 35.27853 | 16255 ft | 372 kts | 205° |
| 2026-04-25 18:19 | 30.77199 | 35.26689 | 15992 ft | 371 kts | 205° |
| 2026-04-25 18:19 | 30.74804 | 35.25508 | 15733 ft | 369 kts | 205° |
| 2026-04-25 18:20 | 30.72428 | 35.24339 | 15492 ft | 369 kts | 205° |
| 2026-04-25 18:20 | 30.70085 | 35.23186 | 15263 ft | 368 kts | 205° |
| 2026-04-25 18:20 | 30.67708 | 35.22015 | 15001 ft | 367 kts | 205° |
| 2026-04-25 18:20 | 30.65345 | 35.20853 | 14750 ft | 366 kts | 204° |
| 2026-04-25 18:21 | 30.63011 | 35.19707 | 14489 ft | 366 kts | 204° |
| 2026-04-25 18:21 | 30.60654 | 35.18550 | 14168 ft | 365 kts | 204° |
| 2026-04-25 18:21 | 30.58329 | 35.17423 | 13794 ft | 364 kts | 203° |
| 2026-04-25 18:21 | 30.55906 | 35.16464 | 13265 ft | 362 kts | 198° |
| 2026-04-25 18:22 | 30.53499 | 35.15773 | 12725 ft | 360 kts | 193° |
| 2026-04-25 18:22 | 30.52651 | 35.15588 | 12531 ft | 359 kts | 192° |
| 2026-04-25 18:22 | 30.48560 | 35.14784 | 11614 ft | 355 kts | 191° |
| 2026-04-25 18:22 | 30.46170 | 35.14327 | 11233 ft | 346 kts | 191° |
| 2026-04-25 18:23 | 30.43827 | 35.13878 | 11011 ft | 333 kts | 191° |
| 2026-04-25 18:23 | 30.41578 | 35.13448 | 10801 ft | 321 kts | 191° |
| 2026-04-25 18:23 | 30.39396 | 35.13027 | 10581 ft | 310 kts | 191° |
| 2026-04-25 18:23 | 30.37315 | 35.12625 | 10346 ft | 301 kts | 191° |
| 2026-04-25 18:24 | 30.35278 | 35.12231 | 10146 ft | 290 kts | 191° |
| 2026-04-25 18:24 | 30.33322 | 35.11853 | 10020 ft | 277 kts | 191° |
| 2026-04-25 18:24 | 30.31415 | 35.11489 | 9668 ft | 275 kts | 191° |
| 2026-04-25 18:24 | 30.29524 | 35.11134 | 9302 ft | 274 kts | 191° |
| 2026-04-25 18:25 | 30.27640 | 35.10783 | 8944 ft | 274 kts | 191° |
| 2026-04-25 18:25 | 30.25756 | 35.10430 | 8565 ft | 273 kts | 191° |
| 2026-04-25 18:25 | 30.23876 | 35.10078 | 8199 ft | 273 kts | 191° |
| 2026-04-25 18:25 | 30.21995 | 35.09721 | 7831 ft | 273 kts | 192° |
| 2026-04-25 18:26 | 30.20120 | 35.09338 | 7471 ft | 272 kts | 192° |
| 2026-04-25 18:26 | 30.18258 | 35.08947 | 7110 ft | 272 kts | 192° |
| 2026-04-25 18:26 | 30.16379 | 35.08554 | 6748 ft | 272 kts | 192° |
| 2026-04-25 18:26 | 30.14508 | 35.08163 | 6389 ft | 272 kts | 193° |
| 2026-04-25 18:27 | 30.12665 | 35.07783 | 6029 ft | 272 kts | 193° |
| 2026-04-25 18:27 | 30.10805 | 35.07397 | 5783 ft | 265 kts | 193° |
| 2026-04-25 18:27 | 30.09025 | 35.07028 | 5681 ft | 254 kts | 193° |
| 2026-04-25 18:27 | 30.07314 | 35.06723 | 5568 ft | 244 kts | 188° |
| 2026-04-25 18:28 | 30.05629 | 35.06643 | 5341 ft | 241 kts | 181° |
| 2026-04-25 18:28 | 30.03939 | 35.06704 | 5045 ft | 241 kts | 179° |
| 2026-04-25 18:28 | 30.02256 | 35.06786 | 4750 ft | 242 kts | 179° |
| 2026-04-25 18:29 | 29.98885 | 35.06943 | 4152 ft | 242 kts | 178° |
| 2026-04-25 18:29 | 29.97205 | 35.07016 | 3842 ft | 243 kts | 178° |
| 2026-04-25 18:30 | 29.92297 | 35.06937 | 3447 ft | 229 kts | 192° |
| 2026-04-25 18:30 | 29.90748 | 35.06525 | 3252 ft | 226 kts | 194° |
| 2026-04-25 18:30 | 29.89240 | 35.06084 | 3108 ft | 217 kts | 194° |
| 2026-04-25 18:30 | 29.87807 | 35.05667 | 2980 ft | 201 kts | 194° |
| 2026-04-25 18:31 | 29.86491 | 35.05289 | 2786 ft | 185 kts | 194° |
| 2026-04-25 18:31 | 29.85305 | 35.04951 | 2627 ft | 168 kts | 194° |
| 2026-04-25 18:31 | 29.84224 | 35.04645 | 2515 ft | 151 kts | 194° |
| 2026-04-25 18:31 | 29.83195 | 35.04349 | 2298 ft | 152 kts | 194° |
| 2026-04-25 18:32 | 29.82164 | 35.04053 | 1884 ft | 153 kts | 193° |
| 2026-04-25 18:32 | 29.81167 | 35.03771 | 1639 ft | 145 kts | 193° |
| 2026-04-25 18:32 | 29.80172 | 35.03492 | 1455 ft | 144 kts | 193° |
| 2026-04-25 18:32 | 29.79203 | 35.03221 | 1275 ft | 143 kts | 193° |
| 2026-04-25 18:33 | 29.78231 | 35.02966 | 1099 ft | 141 kts | 191° |
| 2026-04-25 18:33 | 29.77272 | 35.02720 | 933 ft | 139 kts | 194° |
| 2026-04-25 18:33 | 29.76346 | 35.02437 | 747 ft | 138 kts | 192° |
| 2026-04-25 18:33 | 29.75416 | 35.02190 | 572 ft | 136 kts | 193° |
| 2026-04-25 18:34 | 29.74497 | 35.01914 | 388 ft | 134 kts | 193° |
| 2026-04-25 18:34 | 29.73585 | 35.01658 | 310 ft | 127 kts | 193° |
| 2026-04-25 18:34 | 29.72843 | 35.01453 | 302 ft | 87 kts | 193° |
| 2026-04-25 18:34 | 29.72421 | 35.01331 | 302 ft | 36 kts | 193° |
| 2026-04-25 18:35 | 29.72248 | 35.01281 | 301 ft | 21 kts | 202° |
| 2026-04-25 18:35 | 29.72226 | 35.01135 | 301 ft | 19 kts | 284° |
| 2026-04-25 18:35 | 29.72316 | 35.01076 | 301 ft | 17 kts | 15° |
| 2026-04-25 18:35 | 29.72405 | 35.01044 | 301 ft | 11 kts | 294° |
| 2026-04-25 18:36 | 29.72422 | 35.00950 | 300 ft | 12 kts | 284° |
| 2026-04-25 18:36 | 29.72474 | 35.00873 | 300 ft | 12 kts | 303° |
| 2026-04-25 18:36 | 29.72492 | 35.00810 | 300 ft | 3 kts | 282° |
| 2026-04-25 18:36 | 29.72495 | 35.00797 | 300 ft | 0 kts | 283° |